Create Tblcommutelog Verified Points Advance Search
| # | Trip ID | Id Commuter | Trip Date | Trip Num | Current Lat | Current Lng | Delta Distance | Current Time | Activity | Activity Confidence | Current Speed | |
|---|---|---|---|---|---|---|---|---|---|---|---|---|
| 71001 | 250327_783030_16444983_0508 | 783030 | (not set) | (not set) | 38.746164101212 | -76.662010168728 | 7.1334 | 2025-03-27 09:35:54.371 | in_vehicle | 100 | 12.213112555545 | |
| 71002 | 250327_783030_16444983_0508 | 783030 | (not set) | (not set) | 38.749078437952 | -76.66210381033 | 7.3811 | 2025-03-27 09:36:05.266 | in_vehicle | 100 | 12.879201051436 | |
| 71003 | 250327_783030_16444983_0508 | 783030 | (not set) | (not set) | 38.752086813843 | -76.660227555578 | 7.6121 | 2025-03-27 09:36:19.268 | in_vehicle | 100 | 10.965873022969 | |
| 71004 | 250327_783030_16444983_0508 | 783030 | (not set) | (not set) | 38.754504575334 | -76.658490455407 | 7.8034 | 2025-03-27 09:36:31.187 | in_vehicle | 100 | 11.859951540944 | |
| 71005 | 250327_783030_16444983_0508 | 783030 | (not set) | (not set) | 38.757066679515 | -76.657301124471 | 7.9915 | 2025-03-27 09:36:42.204 | in_vehicle | 100 | 12.673562992302 | |
| 71006 | 250327_783030_16444983_0508 | 783030 | (not set) | (not set) | 38.760406062916 | -76.656754642309 | 8.2237 | 2025-03-27 09:36:55.211 | in_vehicle | 100 | 12.727207703381 | |
| 71007 | 250327_783030_16444983_0508 | 783030 | (not set) | (not set) | 38.763582100293 | -76.657153637341 | 8.4439 | 2025-03-27 09:37:07.184 | in_vehicle | 100 | 13.084839110571 | |
| 71008 | 250327_783030_16444983_0508 | 783030 | (not set) | (not set) | 38.766894655773 | -76.657504110546 | 8.6732 | 2025-03-27 09:37:20.268 | in_vehicle | 100 | 12.552862392375 | |
| 71009 | 250327_783030_16444983_0508 | 783030 | (not set) | (not set) | 38.770175602874 | -76.657858332417 | 8.9003 | 2025-03-27 09:37:33.182 | in_vehicle | 100 | 12.633329458993 | |
| 71010 | 250327_783030_16444983_0508 | 783030 | (not set) | (not set) | 38.773234310888 | -76.659351949654 | 9.1261 | 2025-03-27 09:37:46.286 | in_vehicle | 100 | 12.275698051803 | |
| 71011 | 250327_783030_16444983_0508 | 783030 | (not set) | (not set) | 38.775693575792 | -76.660849628135 | 9.3141 | 2025-03-27 09:37:57.199 | in_vehicle | 100 | 12.235464518494 | |
| 71012 | 250327_783030_16444983_0508 | 783030 | (not set) | (not set) | 38.778344791618 | -76.661986414987 | 9.507 | 2025-03-27 09:38:08.207 | in_vehicle | 100 | 12.843437910717 | |
| 71013 | 250327_783030_16444983_0508 | 783030 | (not set) | (not set) | 38.781544657562 | -76.663086378154 | 9.7356 | 2025-03-27 09:38:21.191 | in_vehicle | 100 | 12.284638836983 | |
| 71014 | 250327_783030_16444983_0508 | 783030 | (not set) | (not set) | 38.784282861254 | -76.663957248293 | 9.9302 | 2025-03-27 09:38:32.294 | in_vehicle | 100 | 12.897082621796 | |
| 71015 | 250327_783030_16444983_0508 | 783030 | (not set) | (not set) | 38.787351962549 | -76.665202746952 | 10.1523 | 2025-03-27 09:38:45.295 | in_vehicle | 100 | 12.038767244539 | |
| 71016 | 250327_783030_16444983_0508 | 783030 | (not set) | (not set) | 38.78989793032 | -76.666782953732 | 10.3476 | 2025-03-27 09:38:57.191 | in_vehicle | 100 | 12.043237637129 | |
| 71017 | 250327_783030_16444983_0508 | 783030 | (not set) | (not set) | 38.792099700794 | -76.669005500086 | 10.5411 | 2025-03-27 09:39:08.368 | in_vehicle | 100 | 12.816615555178 | |
| 71018 | 250327_783030_16444983_0508 | 783030 | (not set) | (not set) | 38.794069465946 | -76.672468649089 | 10.7723 | 2025-03-27 09:39:21.166 | in_vehicle | 100 | 13.317299525244 | |
| 71019 | 250327_783030_16444983_0508 | 783030 | (not set) | (not set) | 38.795900986583 | -76.675833874025 | 10.9935 | 2025-03-27 09:39:33.168 | in_vehicle | 100 | 13.201069317907 | |
| 71020 | 250327_783030_16444983_0508 | 783030 | (not set) | (not set) | 38.797779178842 | -76.679238756008 | 11.2184 | 2025-03-27 09:39:45.156 | in_vehicle | 100 | 13.893980169338 |